sensor_id;sensor_type;location;lat;lon;timestamp;P1;durP1;ratioP1;P2;durP2;ratioP2
5022;SDS011;2530;47.990;7.866;2023-08-20T00:01:33;9.25;;;8.45;;
5022;SDS011;2530;47.990;7.866;2023-08-20T00:03:59;9.47;;;8.47;;
5022;SDS011;2530;47.990;7.866;2023-08-20T00:06:24;8.98;;;8.27;;
5022;SDS011;2530;47.990;7.866;2023-08-20T00:08:50;9.27;;;8.52;;
5022;SDS011;2530;47.990;7.866;2023-08-20T00:11:16;8.90;;;8.10;;
5022;SDS011;2530;47.990;7.866;2023-08-20T00:13:42;8.32;;;7.63;;
5022;SDS011;2530;47.990;7.866;2023-08-20T00:16:08;9.50;;;8.70;;
5022;SDS011;2530;47.990;7.866;2023-08-20T00:18:34;9.80;;;8.90;;
5022;SDS011;2530;47.990;7.866;2023-08-20T00:21:00;9.45;;;8.55;;
5022;SDS011;2530;47.990;7.866;2023-08-20T00:23:26;9.30;;;8.50;;
5022;SDS011;2530;47.990;7.866;2023-08-20T00:25:52;8.65;;;7.93;;
5022;SDS011;2530;47.990;7.866;2023-08-20T00:28:18;11.20;;;8.23;;
5022;SDS011;2530;47.990;7.866;2023-08-20T00:30:45;8.70;;;7.80;;
5022;SDS011;2530;47.990;7.866;2023-08-20T00:33:10;9.90;;;8.80;;
5022;SDS011;2530;47.990;7.866;2023-08-20T00:35:36;8.20;;;7.50;;
5022;SDS011;2530;47.990;7.866;2023-08-20T00:38:01;8.83;;;8.03;;
5022;SDS011;2530;47.990;7.866;2023-08-20T00:40:27;8.20;;;7.45;;
5022;SDS011;2530;47.990;7.866;2023-08-20T00:42:53;8.63;;;7.90;;
5022;SDS011;2530;47.990;7.866;2023-08-20T00:45:18;8.97;;;8.17;;
5022;SDS011;2530;47.990;7.866;2023-08-20T00:47:44;9.40;;;8.50;;
5022;SDS011;2530;47.990;7.866;2023-08-20T00:50:10;9.03;;;8.23;;
5022;SDS011;2530;47.990;7.866;2023-08-20T00:52:36;8.90;;;8.00;;
5022;SDS011;2530;47.990;7.866;2023-08-20T00:55:06;8.70;;;7.80;;
5022;SDS011;2530;47.990;7.866;2023-08-20T00:57:34;8.50;;;7.80;;
5022;SDS011;2530;47.990;7.866;2023-08-20T01:00:01;8.13;;;7.35;;
5022;SDS011;2530;47.990;7.866;2023-08-20T01:02:31;8.73;;;7.93;;
5022;SDS011;2530;47.990;7.866;2023-08-20T01:04:58;9.15;;;8.35;;
5022;SDS011;2530;47.990;7.866;2023-08-20T01:12:42;8.73;;;7.82;;
5022;SDS011;2530;47.990;7.866;2023-08-20T01:15:09;9.18;;;8.20;;
5022;SDS011;2530;47.990;7.866;2023-08-20T01:17:39;8.73;;;7.80;;
5022;SDS011;2530;47.990;7.866;2023-08-20T01:20:05;8.35;;;7.57;;
5022;SDS011;2530;47.990;7.866;2023-08-20T01:25:30;8.80;;;8.07;;
5022;SDS011;2530;47.990;7.866;2023-08-20T01:28:26;9.05;;;8.15;;
5022;SDS011;2530;47.990;7.866;2023-08-20T01:30:54;8.57;;;7.78;;
5022;SDS011;2530;47.990;7.866;2023-08-20T01:33:22;9.02;;;8.23;;
5022;SDS011;2530;47.990;7.866;2023-08-20T01:35:49;9.77;;;8.77;;
5022;SDS011;2530;47.990;7.866;2023-08-20T01:38:15;9.17;;;8.27;;
5022;SDS011;2530;47.990;7.866;2023-08-20T01:40:40;11.40;;;8.40;;
5022;SDS011;2530;47.990;7.866;2023-08-20T01:43:06;8.30;;;7.60;;
5022;SDS011;2530;47.990;7.866;2023-08-20T01:45:32;9.40;;;8.50;;
5022;SDS011;2530;47.990;7.866;2023-08-20T01:47:57;8.52;;;7.82;;
5022;SDS011;2530;47.990;7.866;2023-08-20T01:50:23;8.90;;;8.00;;
5022;SDS011;2530;47.990;7.866;2023-08-20T01:52:48;9.23;;;8.13;;
5022;SDS011;2530;47.990;7.866;2023-08-20T01:55:14;9.77;;;8.30;;
5022;SDS011;2530;47.990;7.866;2023-08-20T01:57:39;8.95;;;8.25;;
5022;SDS011;2530;47.990;7.866;2023-08-20T02:00:05;9.40;;;8.50;;
5022;SDS011;2530;47.990;7.866;2023-08-20T02:02:31;8.80;;;8.00;;
5022;SDS011;2530;47.990;7.866;2023-08-20T02:04:57;8.60;;;7.90;;
5022;SDS011;2530;47.990;7.866;2023-08-20T02:07:23;10.10;;;8.50;;
5022;SDS011;2530;47.990;7.866;2023-08-20T02:09:48;9.43;;;8.50;;
5022;SDS011;2530;47.990;7.866;2023-08-20T02:12:14;9.27;;;7.77;;
5022;SDS011;2530;47.990;7.866;2023-08-20T02:14:40;9.00;;;8.10;;
5022;SDS011;2530;47.990;7.866;2023-08-20T02:17:06;9.23;;;8.40;;
5022;SDS011;2530;47.990;7.866;2023-08-20T02:19:32;9.13;;;8.32;;
5022;SDS011;2530;47.990;7.866;2023-08-20T02:21:57;8.70;;;7.80;;
5022;SDS011;2530;47.990;7.866;2023-08-20T02:24:23;9.15;;;8.10;;
5022;SDS011;2530;47.990;7.866;2023-08-20T02:26:49;9.97;;;8.73;;
5022;SDS011;2530;47.990;7.866;2023-08-20T02:29:14;9.13;;;8.13;;
5022;SDS011;2530;47.990;7.866;2023-08-20T02:31:40;10.00;;;8.75;;
5022;SDS011;2530;47.990;7.866;2023-08-20T02:34:05;9.60;;;8.70;;
5022;SDS011;2530;47.990;7.866;2023-08-20T02:36:31;9.95;;;8.88;;
5022;SDS011;2530;47.990;7.866;2023-08-20T02:38:56;8.50;;;7.80;;
5022;SDS011;2530;47.990;7.866;2023-08-20T02:41:22;9.00;;;8.30;;
5022;SDS011;2530;47.990;7.866;2023-08-20T02:43:48;9.07;;;8.17;;
5022;SDS011;2530;47.990;7.866;2023-08-20T02:46:14;9.70;;;8.70;;
5022;SDS011;2530;47.990;7.866;2023-08-20T02:48:39;9.13;;;8.32;;
5022;SDS011;2530;47.990;7.866;2023-08-20T02:51:05;8.60;;;7.80;;
5022;SDS011;2530;47.990;7.866;2023-08-20T02:53:30;8.40;;;7.70;;
5022;SDS011;2530;47.990;7.866;2023-08-20T02:55:56;8.73;;;7.93;;
5022;SDS011;2530;47.990;7.866;2023-08-20T02:58:22;8.50;;;7.67;;
5022;SDS011;2530;47.990;7.866;2023-08-20T03:00:47;8.10;;;7.30;;
5022;SDS011;2530;47.990;7.866;2023-08-20T03:03:13;8.40;;;7.60;;
5022;SDS011;2530;47.990;7.866;2023-08-20T03:05:39;9.18;;;8.05;;
5022;SDS011;2530;47.990;7.866;2023-08-20T03:08:05;9.40;;;7.63;;
5022;SDS011;2530;47.990;7.866;2023-08-20T03:10:31;10.73;;;8.00;;
5022;SDS011;2530;47.990;7.866;2023-08-20T03:12:58;8.63;;;7.40;;
5022;SDS011;2530;47.990;7.866;2023-08-20T03:15:24;8.10;;;7.40;;
5022;SDS011;2530;47.990;7.866;2023-08-20T03:17:49;8.63;;;7.82;;
5022;SDS011;2530;47.990;7.866;2023-08-20T03:20:15;8.97;;;8.17;;
5022;SDS011;2530;47.990;7.866;2023-08-20T03:22:40;9.02;;;8.20;;
5022;SDS011;2530;47.990;7.866;2023-08-20T03:25:06;8.57;;;7.87;;
5022;SDS011;2530;47.990;7.866;2023-08-20T03:27:32;8.65;;;7.75;;
5022;SDS011;2530;47.990;7.866;2023-08-20T03:29:58;8.98;;;8.07;;
5022;SDS011;2530;47.990;7.866;2023-08-20T03:32:23;8.83;;;7.63;;
5022;SDS011;2530;47.990;7.866;2023-08-20T03:34:49;8.40;;;7.50;;
5022;SDS011;2530;47.990;7.866;2023-08-20T03:37:15;8.35;;;7.50;;
5022;SDS011;2530;47.990;7.866;2023-08-20T03:39:40;9.13;;;8.23;;
5022;SDS011;2530;47.990;7.866;2023-08-20T03:42:06;9.00;;;8.15;;
5022;SDS011;2530;47.990;7.866;2023-08-20T03:44:32;8.73;;;7.90;;
5022;SDS011;2530;47.990;7.866;2023-08-20T03:46:57;9.43;;;7.72;;
5022;SDS011;2530;47.990;7.866;2023-08-20T03:49:23;8.45;;;7.57;;
5022;SDS011;2530;47.990;7.866;2023-08-20T03:51:48;8.73;;;7.83;;
5022;SDS011;2530;47.990;7.866;2023-08-20T03:54:14;8.73;;;7.40;;
5022;SDS011;2530;47.990;7.866;2023-08-20T03:56:39;7.80;;;7.10;;
5022;SDS011;2530;47.990;7.866;2023-08-20T03:59:05;8.10;;;7.35;;
5022;SDS011;2530;47.990;7.866;2023-08-20T04:01:31;8.40;;;7.60;;
5022;SDS011;2530;47.990;7.866;2023-08-20T04:03:57;8.33;;;7.60;;
5022;SDS011;2530;47.990;7.866;2023-08-20T04:06:22;8.35;;;7.55;;
5022;SDS011;2530;47.990;7.866;2023-08-20T04:08:48;8.50;;;7.70;;
5022;SDS011;2530;47.990;7.866;2023-08-20T04:11:13;8.27;;;7.50;;
5022;SDS011;2530;47.990;7.866;2023-08-20T04:13:39;7.82;;;7.07;;
5022;SDS011;2530;47.990;7.866;2023-08-20T04:16:07;7.75;;;7.05;;
5022;SDS011;2530;47.990;7.866;2023-08-20T04:18:33;8.30;;;7.60;;
5022;SDS011;2530;47.990;7.866;2023-08-20T04:20:59;7.63;;;6.93;;
5022;SDS011;2530;47.990;7.866;2023-08-20T04:23:24;7.80;;;7.03;;
5022;SDS011;2530;47.990;7.866;2023-08-20T04:25:50;8.20;;;7.38;;
5022;SDS011;2530;47.990;7.866;2023-08-20T04:28:15;7.40;;;6.70;;
5022;SDS011;2530;47.990;7.866;2023-08-20T04:30:41;8.30;;;7.50;;
5022;SDS011;2530;47.990;7.866;2023-08-20T04:33:06;8.30;;;7.60;;
5022;SDS011;2530;47.990;7.866;2023-08-20T04:35:33;8.20;;;7.40;;
5022;SDS011;2530;47.990;7.866;2023-08-20T04:37:58;8.30;;;7.60;;
5022;SDS011;2530;47.990;7.866;2023-08-20T04:40:24;7.50;;;6.80;;
5022;SDS011;2530;47.990;7.866;2023-08-20T04:42:50;7.87;;;7.27;;
5022;SDS011;2530;47.990;7.866;2023-08-20T04:45:16;8.00;;;7.15;;
5022;SDS011;2530;47.990;7.866;2023-08-20T04:47:44;8.32;;;7.68;;
5022;SDS011;2530;47.990;7.866;2023-08-20T04:50:10;8.77;;;7.40;;
5022;SDS011;2530;47.990;7.866;2023-08-20T04:52:35;8.30;;;7.10;;
5022;SDS011;2530;47.990;7.866;2023-08-20T04:55:01;8.20;;;7.50;;
5022;SDS011;2530;47.990;7.866;2023-08-20T04:57:27;8.48;;;7.65;;
5022;SDS011;2530;47.990;7.866;2023-08-20T04:59:53;7.50;;;6.90;;
5022;SDS011;2530;47.990;7.866;2023-08-20T05:02:19;8.27;;;7.57;;
5022;SDS011;2530;47.990;7.866;2023-08-20T05:04:44;8.10;;;7.40;;
5022;SDS011;2530;47.990;7.866;2023-08-20T05:07:10;8.00;;;7.30;;
5022;SDS011;2530;47.990;7.866;2023-08-20T05:09:35;8.38;;;7.40;;
5022;SDS011;2530;47.990;7.866;2023-08-20T05:12:01;8.20;;;7.40;;
5022;SDS011;2530;47.990;7.866;2023-08-20T05:14:27;8.85;;;8.05;;
5022;SDS011;2530;47.990;7.866;2023-08-20T05:16:53;8.45;;;7.65;;
5022;SDS011;2530;47.990;7.866;2023-08-20T05:19:19;8.23;;;7.50;;
5022;SDS011;2530;47.990;7.866;2023-08-20T05:21:44;8.48;;;7.13;;
5022;SDS011;2530;47.990;7.866;2023-08-20T05:24:10;8.13;;;7.33;;
5022;SDS011;2530;47.990;7.866;2023-08-20T05:26:35;8.32;;;7.65;;
5022;SDS011;2530;47.990;7.866;2023-08-20T05:29:01;8.33;;;7.63;;
5022;SDS011;2530;47.990;7.866;2023-08-20T05:31:27;8.68;;;7.78;;
5022;SDS011;2530;47.990;7.866;2023-08-20T05:33:53;7.65;;;7.05;;
5022;SDS011;2530;47.990;7.866;2023-08-20T05:36:18;9.40;;;8.27;;
5022;SDS011;2530;47.990;7.866;2023-08-20T05:38:44;8.68;;;7.88;;
5022;SDS011;2530;47.990;7.866;2023-08-20T05:41:09;9.10;;;8.10;;
5022;SDS011;2530;47.990;7.866;2023-08-20T05:43:35;8.80;;;8.00;;
5022;SDS011;2530;47.990;7.866;2023-08-20T05:46:03;8.40;;;7.70;;
5022;SDS011;2530;47.990;7.866;2023-08-20T05:48:29;8.80;;;7.90;;
5022;SDS011;2530;47.990;7.866;2023-08-20T05:50:55;8.37;;;7.57;;
5022;SDS011;2530;47.990;7.866;2023-08-20T05:53:21;8.80;;;8.10;;
5022;SDS011;2530;47.990;7.866;2023-08-20T05:55:47;8.00;;;7.30;;
5022;SDS011;2530;47.990;7.866;2023-08-20T05:58:13;9.93;;;8.13;;
5022;SDS011;2530;47.990;7.866;2023-08-20T06:00:39;9.05;;;8.25;;
5022;SDS011;2530;47.990;7.866;2023-08-20T06:03:04;9.45;;;8.63;;
5022;SDS011;2530;47.990;7.866;2023-08-20T06:05:31;8.50;;;7.80;;
5022;SDS011;2530;47.990;7.866;2023-08-20T06:07:56;8.50;;;7.80;;
5022;SDS011;2530;47.990;7.866;2023-08-20T06:10:22;9.05;;;8.15;;
5022;SDS011;2530;47.990;7.866;2023-08-20T06:12:47;10.37;;;8.30;;
5022;SDS011;2530;47.990;7.866;2023-08-20T06:15:13;8.02;;;7.32;;
5022;SDS011;2530;47.990;7.866;2023-08-20T06:17:39;8.63;;;7.82;;
5022;SDS011;2530;47.990;7.866;2023-08-20T06:20:05;9.00;;;8.20;;
5022;SDS011;2530;47.990;7.866;2023-08-20T06:22:32;9.18;;;8.40;;
5022;SDS011;2530;47.990;7.866;2023-08-20T06:24:58;10.18;;;8.10;;
5022;SDS011;2530;47.990;7.866;2023-08-20T06:27:23;10.70;;;8.20;;
5022;SDS011;2530;47.990;7.866;2023-08-20T06:29:49;8.20;;;7.60;;
5022;SDS011;2530;47.990;7.866;2023-08-20T06:32:15;9.60;;;8.80;;
5022;SDS011;2530;47.990;7.866;2023-08-20T06:34:40;9.20;;;8.30;;
5022;SDS011;2530;47.990;7.866;2023-08-20T06:37:06;8.80;;;8.00;;
5022;SDS011;2530;47.990;7.866;2023-08-20T06:39:31;8.70;;;8.00;;
5022;SDS011;2530;47.990;7.866;2023-08-20T06:41:57;9.40;;;8.50;;
5022;SDS011;2530;47.990;7.866;2023-08-20T06:44:22;9.10;;;8.20;;
5022;SDS011;2530;47.990;7.866;2023-08-20T06:46:48;9.05;;;8.25;;
5022;SDS011;2530;47.990;7.866;2023-08-20T06:49:13;8.90;;;8.10;;
5022;SDS011;2530;47.990;7.866;2023-08-20T06:51:39;8.70;;;7.50;;
5022;SDS011;2530;47.990;7.866;2023-08-20T06:54:04;9.03;;;8.13;;
5022;SDS011;2530;47.990;7.866;2023-08-20T06:56:31;8.80;;;7.93;;
5022;SDS011;2530;47.990;7.866;2023-08-20T06:58:57;9.35;;;7.88;;
5022;SDS011;2530;47.990;7.866;2023-08-20T07:01:22;8.20;;;7.40;;
5022;SDS011;2530;47.990;7.866;2023-08-20T07:03:48;9.87;;;7.60;;
5022;SDS011;2530;47.990;7.866;2023-08-20T07:06:14;9.00;;;8.10;;
5022;SDS011;2530;47.990;7.866;2023-08-20T07:08:41;7.90;;;7.30;;
5022;SDS011;2530;47.990;7.866;2023-08-20T07:11:07;8.40;;;7.50;;
5022;SDS011;2530;47.990;7.866;2023-08-20T07:13:33;9.43;;;7.68;;
5022;SDS011;2530;47.990;7.866;2023-08-20T07:15:58;8.40;;;7.53;;
5022;SDS011;2530;47.990;7.866;2023-08-20T07:18:24;7.28;;;6.63;;
5022;SDS011;2530;47.990;7.866;2023-08-20T07:20:50;8.07;;;7.37;;
5022;SDS011;2530;47.990;7.866;2023-08-20T07:23:16;7.35;;;6.80;;
5022;SDS011;2530;47.990;7.866;2023-08-20T07:25:42;8.73;;;7.00;;
5022;SDS011;2530;47.990;7.866;2023-08-20T07:28:09;7.70;;;7.00;;
5022;SDS011;2530;47.990;7.866;2023-08-20T07:30:35;7.80;;;7.10;;
5022;SDS011;2530;47.990;7.866;2023-08-20T07:33:01;7.60;;;6.90;;
5022;SDS011;2530;47.990;7.866;2023-08-20T07:35:28;7.95;;;7.15;;
5022;SDS011;2530;47.990;7.866;2023-08-20T07:37:53;7.70;;;6.87;;
5022;SDS011;2530;47.990;7.866;2023-08-20T07:40:19;7.90;;;7.30;;
5022;SDS011;2530;47.990;7.866;2023-08-20T07:42:45;8.00;;;7.20;;
5022;SDS011;2530;47.990;7.866;2023-08-20T07:45:10;8.35;;;7.65;;
5022;SDS011;2530;47.990;7.866;2023-08-20T07:47:36;9.23;;;7.93;;
5022;SDS011;2530;47.990;7.866;2023-08-20T07:50:05;9.55;;;8.52;;
5022;SDS011;2530;47.990;7.866;2023-08-20T07:52:32;9.50;;;8.50;;
5022;SDS011;2530;47.990;7.866;2023-08-20T07:54:57;8.98;;;8.15;;
5022;SDS011;2530;47.990;7.866;2023-08-20T07:57:23;9.30;;;8.50;;
5022;SDS011;2530;47.990;7.866;2023-08-20T07:59:49;8.80;;;8.00;;
5022;SDS011;2530;47.990;7.866;2023-08-20T08:02:15;8.90;;;8.10;;
5022;SDS011;2530;47.990;7.866;2023-08-20T08:04:41;9.48;;;7.85;;
5022;SDS011;2530;47.990;7.866;2023-08-20T08:07:07;9.25;;;8.38;;
5022;SDS011;2530;47.990;7.866;2023-08-20T08:09:33;8.77;;;7.97;;
5022;SDS011;2530;47.990;7.866;2023-08-20T08:11:58;8.67;;;7.70;;
5022;SDS011;2530;47.990;7.866;2023-08-20T08:14:24;8.50;;;7.70;;
5022;SDS011;2530;47.990;7.866;2023-08-20T08:16:50;8.77;;;8.00;;
5022;SDS011;2530;47.990;7.866;2023-08-20T08:19:17;9.20;;;8.30;;
5022;SDS011;2530;47.990;7.866;2023-08-20T08:21:43;10.68;;;7.72;;
5022;SDS011;2530;47.990;7.866;2023-08-20T08:24:09;8.77;;;7.85;;
5022;SDS011;2530;47.990;7.866;2023-08-20T08:26:35;9.15;;;8.15;;
5022;SDS011;2530;47.990;7.866;2023-08-20T08:29:04;8.30;;;7.60;;
5022;SDS011;2530;47.990;7.866;2023-08-20T08:31:31;8.40;;;7.70;;
5022;SDS011;2530;47.990;7.866;2023-08-20T08:33:57;8.50;;;7.70;;
5022;SDS011;2530;47.990;7.866;2023-08-20T08:36:23;10.80;;;8.00;;
5022;SDS011;2530;47.990;7.866;2023-08-20T08:38:52;8.50;;;7.70;;
5022;SDS011;2530;47.990;7.866;2023-08-20T08:41:19;8.02;;;7.32;;
5022;SDS011;2530;47.990;7.866;2023-08-20T08:43:47;8.85;;;8.05;;
5022;SDS011;2530;47.990;7.866;2023-08-20T08:46:14;8.40;;;7.70;;
5022;SDS011;2530;47.990;7.866;2023-08-20T08:48:40;8.93;;;8.10;;
5022;SDS011;2530;47.990;7.866;2023-08-20T08:51:07;8.80;;;7.90;;
5022;SDS011;2530;47.990;7.866;2023-08-20T08:53:33;8.70;;;8.00;;
5022;SDS011;2530;47.990;7.866;2023-08-20T08:55:59;9.02;;;8.23;;
5022;SDS011;2530;47.990;7.866;2023-08-20T08:58:25;8.60;;;7.80;;
5022;SDS011;2530;47.990;7.866;2023-08-20T09:00:51;9.55;;;8.65;;
5022;SDS011;2530;47.990;7.866;2023-08-20T09:03:17;9.67;;;8.77;;
5022;SDS011;2530;47.990;7.866;2023-08-20T09:05:50;9.63;;;8.43;;
5022;SDS011;2530;47.990;7.866;2023-08-20T09:08:26;8.57;;;7.80;;
5022;SDS011;2530;47.990;7.866;2023-08-20T09:10:53;8.40;;;7.70;;
5022;SDS011;2530;47.990;7.866;2023-08-20T09:13:31;8.95;;;8.07;;
5022;SDS011;2530;47.990;7.866;2023-08-20T09:15:58;9.25;;;8.25;;
5022;SDS011;2530;47.990;7.866;2023-08-20T09:18:24;8.30;;;7.50;;
5022;SDS011;2530;47.990;7.866;2023-08-20T09:20:50;10.73;;;8.23;;
5022;SDS011;2530;47.990;7.866;2023-08-20T09:23:16;9.23;;;8.43;;
5022;SDS011;2530;47.990;7.866;2023-08-20T09:25:42;8.50;;;7.78;;
5022;SDS011;2530;47.990;7.866;2023-08-20T09:28:08;8.43;;;7.72;;
5022;SDS011;2530;47.990;7.866;2023-08-20T09:30:34;11.05;;;8.52;;
5022;SDS011;2530;47.990;7.866;2023-08-20T09:33:12;9.00;;;8.20;;
5022;SDS011;2530;47.990;7.866;2023-08-20T09:35:48;9.23;;;7.47;;
5022;SDS011;2530;47.990;7.866;2023-08-20T09:38:14;9.17;;;8.37;;
5022;SDS011;2530;47.990;7.866;2023-08-20T09:40:40;8.13;;;7.35;;
5022;SDS011;2530;47.990;7.866;2023-08-20T09:43:05;9.60;;;8.80;;
5022;SDS011;2530;47.990;7.866;2023-08-20T09:45:34;8.53;;;7.77;;
5022;SDS011;2530;47.990;7.866;2023-08-20T09:48:01;8.45;;;7.78;;
5022;SDS011;2530;47.990;7.866;2023-08-20T09:50:31;8.88;;;8.07;;
5022;SDS011;2530;47.990;7.866;2023-08-20T09:53:06;9.23;;;8.30;;
5022;SDS011;2530;47.990;7.866;2023-08-20T09:55:38;9.80;;;8.90;;
5022;SDS011;2530;47.990;7.866;2023-08-20T09:58:06;9.20;;;8.30;;
5022;SDS011;2530;47.990;7.866;2023-08-20T10:00:32;8.93;;;8.23;;
5022;SDS011;2530;47.990;7.866;2023-08-20T10:02:58;9.40;;;8.50;;
5022;SDS011;2530;47.990;7.866;2023-08-20T10:05:24;8.30;;;7.70;;
5022;SDS011;2530;47.990;7.866;2023-08-20T10:07:50;8.90;;;8.00;;
5022;SDS011;2530;47.990;7.866;2023-08-20T10:10:17;8.27;;;7.57;;
5022;SDS011;2530;47.990;7.866;2023-08-20T10:12:43;9.10;;;8.40;;
5022;SDS011;2530;47.990;7.866;2023-08-20T10:15:11;9.00;;;8.10;;
5022;SDS011;2530;47.990;7.866;2023-08-20T10:17:38;9.45;;;8.55;;
5022;SDS011;2530;47.990;7.866;2023-08-20T10:20:06;8.68;;;7.88;;
5022;SDS011;2530;47.990;7.866;2023-08-20T10:22:36;8.73;;;8.02;;
5022;SDS011;2530;47.990;7.866;2023-08-20T10:25:09;8.93;;;7.40;;
5022;SDS011;2530;47.990;7.866;2023-08-20T10:27:40;8.13;;;7.60;;
5022;SDS011;2530;47.990;7.866;2023-08-20T10:30:08;8.52;;;7.63;;
5022;SDS011;2530;47.990;7.866;2023-08-20T10:32:51;9.20;;;8.30;;
5022;SDS011;2530;47.990;7.866;2023-08-20T10:35:20;8.10;;;7.40;;
5022;SDS011;2530;47.990;7.866;2023-08-20T10:38:01;8.73;;;7.93;;
5022;SDS011;2530;47.990;7.866;2023-08-20T10:43:34;8.60;;;7.80;;
5022;SDS011;2530;47.990;7.866;2023-08-20T10:48:40;7.80;;;7.10;;
5022;SDS011;2530;47.990;7.866;2023-08-20T10:51:13;7.20;;;6.60;;
5022;SDS011;2530;47.990;7.866;2023-08-20T10:53:45;7.45;;;6.70;;
5022;SDS011;2530;47.990;7.866;2023-08-20T10:56:39;7.55;;;7.05;;
5022;SDS011;2530;47.990;7.866;2023-08-20T10:59:15;7.82;;;7.05;;
5022;SDS011;2530;47.990;7.866;2023-08-20T11:01:57;6.72;;;6.22;;
5022;SDS011;2530;47.990;7.866;2023-08-20T11:04:24;8.55;;;6.93;;
5022;SDS011;2530;47.990;7.866;2023-08-20T11:06:53;6.72;;;6.20;;
5022;SDS011;2530;47.990;7.866;2023-08-20T11:09:21;7.13;;;6.43;;
5022;SDS011;2530;47.990;7.866;2023-08-20T11:11:47;7.50;;;6.80;;
5022;SDS011;2530;47.990;7.866;2023-08-20T11:14:13;7.43;;;6.80;;
5022;SDS011;2530;47.990;7.866;2023-08-20T11:16:40;7.55;;;6.75;;
5022;SDS011;2530;47.990;7.866;2023-08-20T11:19:08;7.37;;;6.77;;
5022;SDS011;2530;47.990;7.866;2023-08-20T11:21:34;13.70;;;7.32;;
5022;SDS011;2530;47.990;7.866;2023-08-20T11:24:01;7.82;;;7.03;;
5022;SDS011;2530;47.990;7.866;2023-08-20T11:26:27;7.68;;;6.97;;
5022;SDS011;2530;47.990;7.866;2023-08-20T11:28:52;7.53;;;6.80;;
5022;SDS011;2530;47.990;7.866;2023-08-20T11:31:18;7.27;;;6.57;;
5022;SDS011;2530;47.990;7.866;2023-08-20T11:33:44;7.43;;;6.82;;
5022;SDS011;2530;47.990;7.866;2023-08-20T11:36:10;6.80;;;6.30;;
5022;SDS011;2530;47.990;7.866;2023-08-20T11:38:36;6.47;;;5.97;;
5022;SDS011;2530;47.990;7.866;2023-08-20T11:41:02;7.70;;;6.17;;
5022;SDS011;2530;47.990;7.866;2023-08-20T11:43:28;7.00;;;6.00;;
5022;SDS011;2530;47.990;7.866;2023-08-20T11:45:54;6.90;;;6.10;;
5022;SDS011;2530;47.990;7.866;2023-08-20T11:48:20;6.97;;;6.27;;
5022;SDS011;2530;47.990;7.866;2023-08-20T11:50:46;6.68;;;6.13;;
5022;SDS011;2530;47.990;7.866;2023-08-20T11:53:12;6.60;;;6.10;;
5022;SDS011;2530;47.990;7.866;2023-08-20T11:55:39;7.05;;;6.40;;
5022;SDS011;2530;47.990;7.866;2023-08-20T11:58:05;7.40;;;6.80;;
5022;SDS011;2530;47.990;7.866;2023-08-20T12:00:34;6.75;;;6.25;;
5022;SDS011;2530;47.990;7.866;2023-08-20T12:03:01;8.87;;;6.80;;
5022;SDS011;2530;47.990;7.866;2023-08-20T12:05:29;7.63;;;6.93;;
5022;SDS011;2530;47.990;7.866;2023-08-20T12:07:56;7.80;;;7.00;;
5022;SDS011;2530;47.990;7.866;2023-08-20T12:10:23;7.65;;;6.88;;
5022;SDS011;2530;47.990;7.866;2023-08-20T12:12:49;6.90;;;6.30;;
5022;SDS011;2530;47.990;7.866;2023-08-20T12:15:15;7.87;;;7.17;;
5022;SDS011;2530;47.990;7.866;2023-08-20T12:17:40;7.43;;;6.82;;
5022;SDS011;2530;47.990;7.866;2023-08-20T12:20:06;7.80;;;7.20;;
5022;SDS011;2530;47.990;7.866;2023-08-20T12:22:38;7.78;;;7.07;;
5022;SDS011;2530;47.990;7.866;2023-08-20T12:25:05;7.80;;;7.20;;
5022;SDS011;2530;47.990;7.866;2023-08-20T12:27:31;8.77;;;7.50;;
5022;SDS011;2530;47.990;7.866;2023-08-20T12:29:57;7.80;;;7.10;;
5022;SDS011;2530;47.990;7.866;2023-08-20T12:32:22;8.27;;;7.57;;
5022;SDS011;2530;47.990;7.866;2023-08-20T12:34:48;8.53;;;7.73;;
5022;SDS011;2530;47.990;7.866;2023-08-20T12:37:13;8.37;;;7.67;;
5022;SDS011;2530;47.990;7.866;2023-08-20T12:39:39;8.60;;;7.90;;
5022;SDS011;2530;47.990;7.866;2023-08-20T12:42:04;8.90;;;8.00;;
5022;SDS011;2530;47.990;7.866;2023-08-20T12:44:30;8.48;;;7.68;;
5022;SDS011;2530;47.990;7.866;2023-08-20T12:46:56;8.33;;;7.53;;
5022;SDS011;2530;47.990;7.866;2023-08-20T12:49:21;8.00;;;7.30;;
5022;SDS011;2530;47.990;7.866;2023-08-20T12:51:47;7.13;;;6.53;;
5022;SDS011;2530;47.990;7.866;2023-08-20T12:54:13;9.00;;;7.65;;
5022;SDS011;2530;47.990;7.866;2023-08-20T12:56:38;8.33;;;7.20;;
5022;SDS011;2530;47.990;7.866;2023-08-20T12:59:04;8.60;;;7.55;;
5022;SDS011;2530;47.990;7.866;2023-08-20T13:01:29;7.78;;;7.07;;
5022;SDS011;2530;47.990;7.866;2023-08-20T13:03:55;7.87;;;7.07;;
5022;SDS011;2530;47.990;7.866;2023-08-20T13:06:21;7.43;;;6.72;;
5022;SDS011;2530;47.990;7.866;2023-08-20T13:08:47;7.65;;;6.93;;
5022;SDS011;2530;47.990;7.866;2023-08-20T13:11:13;7.80;;;7.13;;
5022;SDS011;2530;47.990;7.866;2023-08-20T13:13:42;7.30;;;6.60;;
5022;SDS011;2530;47.990;7.866;2023-08-20T13:16:08;7.30;;;6.60;;
5022;SDS011;2530;47.990;7.866;2023-08-20T13:18:34;6.82;;;6.13;;
5022;SDS011;2530;47.990;7.866;2023-08-20T13:21:00;7.72;;;6.18;;
5022;SDS011;2530;47.990;7.866;2023-08-20T13:23:28;7.00;;;6.40;;
5022;SDS011;2530;47.990;7.866;2023-08-20T13:25:54;5.80;;;5.30;;
5022;SDS011;2530;47.990;7.866;2023-08-20T13:28:20;7.50;;;5.47;;
5022;SDS011;2530;47.990;7.866;2023-08-20T13:30:45;7.10;;;6.40;;
5022;SDS011;2530;47.990;7.866;2023-08-20T13:33:12;6.63;;;6.03;;
5022;SDS011;2530;47.990;7.866;2023-08-20T13:35:38;6.28;;;5.60;;
5022;SDS011;2530;47.990;7.866;2023-08-20T13:38:03;6.57;;;5.90;;
5022;SDS011;2530;47.990;7.866;2023-08-20T13:40:31;7.00;;;6.15;;
5022;SDS011;2530;47.990;7.866;2023-08-20T13:42:56;7.30;;;6.57;;
5022;SDS011;2530;47.990;7.866;2023-08-20T13:45:22;6.80;;;6.20;;
5022;SDS011;2530;47.990;7.866;2023-08-20T13:47:47;6.23;;;5.73;;
5022;SDS011;2530;47.990;7.866;2023-08-20T13:50:13;6.60;;;6.00;;
5022;SDS011;2530;47.990;7.866;2023-08-20T13:52:38;8.35;;;5.70;;
5022;SDS011;2530;47.990;7.866;2023-08-20T13:55:04;6.82;;;6.22;;
5022;SDS011;2530;47.990;7.866;2023-08-20T13:57:30;6.70;;;6.07;;
5022;SDS011;2530;47.990;7.866;2023-08-20T13:59:56;6.78;;;6.07;;
5022;SDS011;2530;47.990;7.866;2023-08-20T14:02:21;6.70;;;6.10;;
5022;SDS011;2530;47.990;7.866;2023-08-20T14:04:47;6.93;;;6.23;;
5022;SDS011;2530;47.990;7.866;2023-08-20T14:07:12;7.53;;;6.37;;
5022;SDS011;2530;47.990;7.866;2023-08-20T14:09:38;6.68;;;6.07;;
5022;SDS011;2530;47.990;7.866;2023-08-20T14:12:05;7.20;;;6.10;;
5022;SDS011;2530;47.990;7.866;2023-08-20T14:14:30;8.00;;;7.30;;
5022;SDS011;2530;47.990;7.866;2023-08-20T14:16:56;6.93;;;6.20;;
5022;SDS011;2530;47.990;7.866;2023-08-20T14:19:22;9.15;;;6.80;;
5022;SDS011;2530;47.990;7.866;2023-08-20T14:21:47;7.77;;;7.00;;
5022;SDS011;2530;47.990;7.866;2023-08-20T14:24:13;7.80;;;6.80;;
5022;SDS011;2530;47.990;7.866;2023-08-20T14:26:38;6.72;;;6.13;;
5022;SDS011;2530;47.990;7.866;2023-08-20T14:29:04;6.80;;;6.20;;
5022;SDS011;2530;47.990;7.866;2023-08-20T14:31:30;7.00;;;6.40;;
5022;SDS011;2530;47.990;7.866;2023-08-20T14:33:56;7.10;;;6.40;;
5022;SDS011;2530;47.990;7.866;2023-08-20T14:36:21;7.33;;;6.70;;
5022;SDS011;2530;47.990;7.866;2023-08-20T14:38:47;7.28;;;6.50;;
5022;SDS011;2530;47.990;7.866;2023-08-20T14:41:12;6.82;;;6.22;;
5022;SDS011;2530;47.990;7.866;2023-08-20T14:43:38;6.82;;;6.22;;
5022;SDS011;2530;47.990;7.866;2023-08-20T14:46:04;7.27;;;6.67;;
5022;SDS011;2530;47.990;7.866;2023-08-20T14:48:29;7.57;;;6.30;;
5022;SDS011;2530;47.990;7.866;2023-08-20T14:50:55;6.60;;;6.00;;
5022;SDS011;2530;47.990;7.866;2023-08-20T14:53:21;7.47;;;6.27;;
5022;SDS011;2530;47.990;7.866;2023-08-20T14:55:46;8.02;;;6.57;;
5022;SDS011;2530;47.990;7.866;2023-08-20T14:58:12;6.65;;;5.95;;
5022;SDS011;2530;47.990;7.866;2023-08-20T15:00:38;8.57;;;6.47;;
5022;SDS011;2530;47.990;7.866;2023-08-20T15:03:03;6.63;;;5.93;;
5022;SDS011;2530;47.990;7.866;2023-08-20T15:05:29;6.82;;;6.22;;
5022;SDS011;2530;47.990;7.866;2023-08-20T15:07:55;6.77;;;6.17;;
5022;SDS011;2530;47.990;7.866;2023-08-20T15:10:21;8.48;;;6.25;;
5022;SDS011;2530;47.990;7.866;2023-08-20T15:12:46;6.73;;;6.20;;
5022;SDS011;2530;47.990;7.866;2023-08-20T15:15:12;6.60;;;6.00;;
5022;SDS011;2530;47.990;7.866;2023-08-20T15:17:37;9.37;;;6.37;;
5022;SDS011;2530;47.990;7.866;2023-08-20T15:20:04;7.45;;;6.85;;
5022;SDS011;2530;47.990;7.866;2023-08-20T15:22:36;7.18;;;6.20;;
5022;SDS011;2530;47.990;7.866;2023-08-20T15:25:02;6.68;;;6.18;;